Hovedside
METAR-TAF:

METAR-TAF

Lufthavner :

Sir Seewoosagur Ramgoolam internasjonale lufthavn

Mauritius, Mauritius

breddegrad: 20-26S, lengdegrad: 057-40E, høyde over havet: 55 m

Gjeldene værobservasjon

Denne rapporten ble laget for 58 minutter siden, klokken 15:00 UTC
Flau vind
Temperatur 23°C
Luftfuktighet 78%
Trykk 1020 hPa
Sikt 10 km eller mer
Spredte skyer i en høyde av 1800 ft

METAR: FIMP 191500Z 00000KT 9999 SCT018 23/19 Q1020

Tid: 19:58 (15:58 UTC)

Varsel

Denne rapporten ble laget for 4 timer og 38 minutter siden, klokken 11:20 UTC
Varsel gyldig fra 19. klokken 12 UTC til 20. klokken 18 UTC
Vind 8 kt fra Sør-sørøst
Sikt 10 km eller mer
Få skyer i en høyde av 1800 ft
Midlertidig
fra 19. klokken 18 UTC til 20. klokken 06 UTC
Vind 5 kt fra Nord-nordvest
Sikt 10 km eller mer
ingen skyer under 1500 m og ingen bygeskyer

TAF: FIMP 191120Z 1912/2018 16008KT 9999 FEW018 TEMPO 1918/2006 33005KT CAVOK

Værobservasjoner og værvarsel for over 4000 flyplasser (METAR- og TAF-rapporter).

Tilgjengelige stasjoner er representert av de røde og gule prikkene på kartet.

Hold musepekeren over prikken for å se navnet på stasjonen.

Klikk så for å se værobservasjoner og -varsler.

For å forandre kartet kan du klikke på den grønne knappen med svart kryss for å zoome inn, på den grønne knappen med strek for å zoome ut, eller på de grønne pilene for å se tilstøtende kart.


METAR-TAF: